sensor_id;sensor_type;location;lat;lon;timestamp;P1;durP1;ratioP1;P2;durP2;ratioP2
20369;SDS011;10344;47.592;9.600;2022-12-11T00:02:50;18.17;;;13.70;;
20369;SDS011;10344;47.592;9.600;2022-12-11T00:13:12;23.60;;;16.00;;
20369;SDS011;10344;47.592;9.600;2022-12-11T00:19:59;20.98;;;14.73;;
20369;SDS011;10344;47.592;9.600;2022-12-11T00:25:13;21.00;;;15.13;;
20369;SDS011;10344;47.592;9.600;2022-12-11T00:27:39;24.30;;;15.95;;
20369;SDS011;10344;47.592;9.600;2022-12-11T00:30:05;21.13;;;15.03;;
20369;SDS011;10344;47.592;9.600;2022-12-11T00:32:32;22.15;;;16.35;;
20369;SDS011;10344;47.592;9.600;2022-12-11T00:34:58;19.93;;;14.57;;
20369;SDS011;10344;47.592;9.600;2022-12-11T00:37:23;19.30;;;14.18;;
20369;SDS011;10344;47.592;9.600;2022-12-11T00:39:49;19.27;;;14.17;;
20369;SDS011;10344;47.592;9.600;2022-12-11T00:42:15;22.02;;;15.95;;
20369;SDS011;10344;47.592;9.600;2022-12-11T00:44:42;22.23;;;15.05;;
20369;SDS011;10344;47.592;9.600;2022-12-11T00:47:10;19.30;;;14.10;;
20369;SDS011;10344;47.592;9.600;2022-12-11T00:49:36;19.63;;;14.43;;
20369;SDS011;10344;47.592;9.600;2022-12-11T00:52:29;19.90;;;14.88;;
20369;SDS011;10344;47.592;9.600;2022-12-11T00:55:02;18.90;;;14.38;;
20369;SDS011;10344;47.592;9.600;2022-12-11T00:57:28;21.17;;;15.23;;
20369;SDS011;10344;47.592;9.600;2022-12-11T00:59:53;18.45;;;13.85;;
20369;SDS011;10344;47.592;9.600;2022-12-11T01:02:19;21.90;;;15.20;;
20369;SDS011;10344;47.592;9.600;2022-12-11T01:04:44;21.33;;;15.35;;
20369;SDS011;10344;47.592;9.600;2022-12-11T01:07:10;20.08;;;14.85;;
20369;SDS011;10344;47.592;9.600;2022-12-11T01:09:36;19.17;;;14.33;;
20369;SDS011;10344;47.592;9.600;2022-12-11T01:12:20;22.02;;;15.20;;
20369;SDS011;10344;47.592;9.600;2022-12-11T01:14:46;21.30;;;14.80;;
20369;SDS011;10344;47.592;9.600;2022-12-11T01:17:11;21.95;;;15.07;;
20369;SDS011;10344;47.592;9.600;2022-12-11T01:19:37;19.70;;;15.00;;
20369;SDS011;10344;47.592;9.600;2022-12-11T01:22:03;21.48;;;15.73;;
20369;SDS011;10344;47.592;9.600;2022-12-11T01:24:30;20.55;;;15.27;;
20369;SDS011;10344;47.592;9.600;2022-12-11T01:26:55;20.70;;;14.80;;
20369;SDS011;10344;47.592;9.600;2022-12-11T01:29:21;20.85;;;15.45;;
20369;SDS011;10344;47.592;9.600;2022-12-11T01:31:48;21.33;;;16.55;;
20369;SDS011;10344;47.592;9.600;2022-12-11T01:34:16;23.52;;;16.65;;
20369;SDS011;10344;47.592;9.600;2022-12-11T01:36:44;21.33;;;16.00;;
20369;SDS011;10344;47.592;9.600;2022-12-11T01:39:17;22.15;;;16.25;;
20369;SDS011;10344;47.592;9.600;2022-12-11T01:41:43;23.27;;;16.55;;
20369;SDS011;10344;47.592;9.600;2022-12-11T01:46:39;23.92;;;16.70;;
20369;SDS011;10344;47.592;9.600;2022-12-11T01:49:11;24.02;;;17.02;;
20369;SDS011;10344;47.592;9.600;2022-12-11T01:51:48;22.17;;;16.30;;
20369;SDS011;10344;47.592;9.600;2022-12-11T01:54:22;23.10;;;16.83;;
20369;SDS011;10344;47.592;9.600;2022-12-11T01:56:52;23.77;;;17.13;;
20369;SDS011;10344;47.592;9.600;2022-12-11T01:59:25;24.92;;;16.95;;
20369;SDS011;10344;47.592;9.600;2022-12-11T02:02:05;25.63;;;18.38;;
20369;SDS011;10344;47.592;9.600;2022-12-11T02:04:37;25.58;;;18.27;;
20369;SDS011;10344;47.592;9.600;2022-12-11T02:07:04;25.45;;;17.67;;
20369;SDS011;10344;47.592;9.600;2022-12-11T02:09:31;27.30;;;19.02;;
20369;SDS011;10344;47.592;9.600;2022-12-11T02:21:10;25.20;;;17.50;;
20369;SDS011;10344;47.592;9.600;2022-12-11T02:26:52;26.60;;;18.45;;
20369;SDS011;10344;47.592;9.600;2022-12-11T02:33:40;24.70;;;16.77;;
20369;SDS011;10344;47.592;9.600;2022-12-11T02:36:28;22.38;;;16.40;;
20369;SDS011;10344;47.592;9.600;2022-12-11T02:38:59;19.10;;;14.63;;
20369;SDS011;10344;47.592;9.600;2022-12-11T02:41:28;22.77;;;16.13;;
20369;SDS011;10344;47.592;9.600;2022-12-11T02:43:56;22.58;;;15.68;;
20369;SDS011;10344;47.592;9.600;2022-12-11T02:46:22;21.45;;;15.77;;
20369;SDS011;10344;47.592;9.600;2022-12-11T02:48:51;19.92;;;14.13;;
20369;SDS011;10344;47.592;9.600;2022-12-11T02:51:40;21.67;;;15.73;;
20369;SDS011;10344;47.592;9.600;2022-12-11T02:54:19;22.53;;;15.73;;
20369;SDS011;10344;47.592;9.600;2022-12-11T02:57:13;21.25;;;15.05;;
20369;SDS011;10344;47.592;9.600;2022-12-11T03:00:14;19.25;;;14.13;;
20369;SDS011;10344;47.592;9.600;2022-12-11T03:02:51;19.85;;;14.85;;
20369;SDS011;10344;47.592;9.600;2022-12-11T03:08:52;19.67;;;13.57;;
20369;SDS011;10344;47.592;9.600;2022-12-11T03:11:32;20.23;;;14.15;;
20369;SDS011;10344;47.592;9.600;2022-12-11T03:14:26;19.48;;;14.45;;
20369;SDS011;10344;47.592;9.600;2022-12-11T03:20:23;18.75;;;14.25;;
20369;SDS011;10344;47.592;9.600;2022-12-11T03:23:03;19.20;;;14.02;;
20369;SDS011;10344;47.592;9.600;2022-12-11T03:28:29;20.13;;;13.32;;
20369;SDS011;10344;47.592;9.600;2022-12-11T03:34:01;21.38;;;15.15;;
20369;SDS011;10344;47.592;9.600;2022-12-11T03:36:33;22.55;;;16.13;;
20369;SDS011;10344;47.592;9.600;2022-12-11T03:39:08;22.55;;;15.75;;
20369;SDS011;10344;47.592;9.600;2022-12-11T03:41:41;20.38;;;14.98;;
20369;SDS011;10344;47.592;9.600;2022-12-11T03:44:11;21.00;;;15.00;;
20369;SDS011;10344;47.592;9.600;2022-12-11T03:46:46;21.30;;;15.32;;
20369;SDS011;10344;47.592;9.600;2022-12-11T03:49:18;20.63;;;14.55;;
20369;SDS011;10344;47.592;9.600;2022-12-11T03:52:33;21.10;;;15.63;;
20369;SDS011;10344;47.592;9.600;2022-12-11T03:55:21;21.25;;;15.68;;
20369;SDS011;10344;47.592;9.600;2022-12-11T03:58:15;20.05;;;14.57;;
20369;SDS011;10344;47.592;9.600;2022-12-11T04:00:45;20.33;;;14.40;;
20369;SDS011;10344;47.592;9.600;2022-12-11T04:03:12;21.08;;;14.65;;
20369;SDS011;10344;47.592;9.600;2022-12-11T04:05:44;20.88;;;15.52;;
20369;SDS011;10344;47.592;9.600;2022-12-11T04:08:18;19.95;;;14.50;;
20369;SDS011;10344;47.592;9.600;2022-12-11T04:13:58;21.85;;;15.13;;
20369;SDS011;10344;47.592;9.600;2022-12-11T04:17:05;19.88;;;13.80;;
20369;SDS011;10344;47.592;9.600;2022-12-11T04:20:22;20.50;;;14.23;;
20369;SDS011;10344;47.592;9.600;2022-12-11T04:23:11;18.15;;;13.82;;
20369;SDS011;10344;47.592;9.600;2022-12-11T04:26:08;20.60;;;14.17;;
20369;SDS011;10344;47.592;9.600;2022-12-11T04:28:47;22.30;;;16.25;;
20369;SDS011;10344;47.592;9.600;2022-12-11T04:31:23;20.63;;;15.13;;
20369;SDS011;10344;47.592;9.600;2022-12-11T04:46:37;19.50;;;14.10;;
20369;SDS011;10344;47.592;9.600;2022-12-11T04:49:04;20.33;;;14.32;;
20369;SDS011;10344;47.592;9.600;2022-12-11T04:52:36;20.80;;;14.93;;
20369;SDS011;10344;47.592;9.600;2022-12-11T04:55:47;21.20;;;15.33;;
20369;SDS011;10344;47.592;9.600;2022-12-11T04:58:53;20.45;;;15.20;;
20369;SDS011;10344;47.592;9.600;2022-12-11T05:12:15;20.02;;;14.50;;
20369;SDS011;10344;47.592;9.600;2022-12-11T05:19:24;21.95;;;15.30;;
20369;SDS011;10344;47.592;9.600;2022-12-11T05:29:45;21.85;;;15.27;;
20369;SDS011;10344;47.592;9.600;2022-12-11T05:32:55;20.58;;;14.82;;
20369;SDS011;10344;47.592;9.600;2022-12-11T05:36:31;21.70;;;15.25;;
20369;SDS011;10344;47.592;9.600;2022-12-11T05:42:47;18.23;;;13.98;;
20369;SDS011;10344;47.592;9.600;2022-12-11T05:54:22;20.33;;;14.93;;
20369;SDS011;10344;47.592;9.600;2022-12-11T06:04:33;19.47;;;14.23;;
20369;SDS011;10344;47.592;9.600;2022-12-11T06:11:39;17.95;;;13.55;;
20369;SDS011;10344;47.592;9.600;2022-12-11T06:14:14;17.95;;;13.57;;
20369;SDS011;10344;47.592;9.600;2022-12-11T06:20:23;16.23;;;12.50;;
20369;SDS011;10344;47.592;9.600;2022-12-11T06:27:30;14.25;;;11.00;;
20369;SDS011;10344;47.592;9.600;2022-12-11T06:37:33;15.07;;;10.90;;
20369;SDS011;10344;47.592;9.600;2022-12-11T06:40:03;17.15;;;12.45;;
20369;SDS011;10344;47.592;9.600;2022-12-11T06:46:16;15.07;;;11.25;;
20369;SDS011;10344;47.592;9.600;2022-12-11T06:52:43;14.80;;;11.20;;
20369;SDS011;10344;47.592;9.600;2022-12-11T06:59:28;15.73;;;11.53;;
20369;SDS011;10344;47.592;9.600;2022-12-11T07:19:11;16.48;;;12.10;;
20369;SDS011;10344;47.592;9.600;2022-12-11T07:32:16;17.73;;;12.95;;
20369;SDS011;10344;47.592;9.600;2022-12-11T08:08:54;17.65;;;13.25;;
20369;SDS011;10344;47.592;9.600;2022-12-11T08:11:20;20.52;;;15.05;;
20369;SDS011;10344;47.592;9.600;2022-12-11T08:13:48;18.40;;;12.98;;
20369;SDS011;10344;47.592;9.600;2022-12-11T08:16:14;16.77;;;12.60;;
20369;SDS011;10344;47.592;9.600;2022-12-11T08:18:41;20.55;;;14.60;;
20369;SDS011;10344;47.592;9.600;2022-12-11T08:21:07;22.58;;;16.15;;
20369;SDS011;10344;47.592;9.600;2022-12-11T08:23:35;22.48;;;16.13;;
20369;SDS011;10344;47.592;9.600;2022-12-11T08:26:02;19.83;;;15.43;;
20369;SDS011;10344;47.592;9.600;2022-12-11T08:28:29;20.30;;;14.90;;
20369;SDS011;10344;47.592;9.600;2022-12-11T08:30:57;16.92;;;13.57;;
20369;SDS011;10344;47.592;9.600;2022-12-11T08:33:26;19.50;;;14.47;;
20369;SDS011;10344;47.592;9.600;2022-12-11T08:35:52;17.90;;;14.13;;
20369;SDS011;10344;47.592;9.600;2022-12-11T08:38:20;17.95;;;13.77;;
20369;SDS011;10344;47.592;9.600;2022-12-11T08:40:47;18.23;;;13.87;;
20369;SDS011;10344;47.592;9.600;2022-12-11T08:43:13;19.85;;;14.60;;
20369;SDS011;10344;47.592;9.600;2022-12-11T08:45:39;16.48;;;12.95;;
20369;SDS011;10344;47.592;9.600;2022-12-11T08:48:04;15.07;;;12.23;;
20369;SDS011;10344;47.592;9.600;2022-12-11T08:50:30;15.32;;;12.15;;
20369;SDS011;10344;47.592;9.600;2022-12-11T08:52:56;14.85;;;11.82;;
20369;SDS011;10344;47.592;9.600;2022-12-11T08:55:24;14.00;;;11.73;;
20369;SDS011;10344;47.592;9.600;2022-12-11T08:57:52;16.75;;;12.57;;
20369;SDS011;10344;47.592;9.600;2022-12-11T09:00:20;16.00;;;12.57;;
20369;SDS011;10344;47.592;9.600;2022-12-11T09:02:46;15.48;;;12.55;;
20369;SDS011;10344;47.592;9.600;2022-12-11T09:05:14;16.52;;;13.10;;
20369;SDS011;10344;47.592;9.600;2022-12-11T09:07:40;15.63;;;12.30;;
20369;SDS011;10344;47.592;9.600;2022-12-11T09:10:06;18.80;;;14.30;;
20369;SDS011;10344;47.592;9.600;2022-12-11T09:12:32;19.10;;;14.85;;
20369;SDS011;10344;47.592;9.600;2022-12-11T09:14:59;18.85;;;14.05;;
20369;SDS011;10344;47.592;9.600;2022-12-11T09:17:24;15.88;;;12.30;;
20369;SDS011;10344;47.592;9.600;2022-12-11T09:19:50;17.45;;;13.10;;
20369;SDS011;10344;47.592;9.600;2022-12-11T09:22:16;17.45;;;12.80;;
20369;SDS011;10344;47.592;9.600;2022-12-11T09:24:49;15.70;;;12.35;;
20369;SDS011;10344;47.592;9.600;2022-12-11T09:27:16;16.92;;;12.15;;
20369;SDS011;10344;47.592;9.600;2022-12-11T09:29:47;16.23;;;12.73;;
20369;SDS011;10344;47.592;9.600;2022-12-11T09:32:13;19.17;;;14.53;;
20369;SDS011;10344;47.592;9.600;2022-12-11T09:34:39;18.98;;;14.80;;
20369;SDS011;10344;47.592;9.600;2022-12-11T09:37:04;18.98;;;14.52;;
20369;SDS011;10344;47.592;9.600;2022-12-11T09:39:30;19.53;;;14.27;;
20369;SDS011;10344;47.592;9.600;2022-12-11T09:42:01;18.17;;;14.37;;
20369;SDS011;10344;47.592;9.600;2022-12-11T09:44:53;15.23;;;12.20;;
20369;SDS011;10344;47.592;9.600;2022-12-11T09:50:02;17.75;;;13.25;;
20369;SDS011;10344;47.592;9.600;2022-12-11T09:55:18;12.35;;;10.27;;
20369;SDS011;10344;47.592;9.600;2022-12-11T10:06:11;10.47;;;8.60;;
20369;SDS011;10344;47.592;9.600;2022-12-11T10:11:39;9.60;;;7.70;;
20369;SDS011;10344;47.592;9.600;2022-12-11T10:14:21;7.53;;;6.53;;
20369;SDS011;10344;47.592;9.600;2022-12-11T10:16:55;7.32;;;6.22;;
20369;SDS011;10344;47.592;9.600;2022-12-11T10:19:27;7.00;;;6.30;;
20369;SDS011;10344;47.592;9.600;2022-12-11T10:21:57;6.78;;;5.80;;
20369;SDS011;10344;47.592;9.600;2022-12-11T10:24:41;6.88;;;5.75;;
20369;SDS011;10344;47.592;9.600;2022-12-11T10:27:12;8.70;;;7.55;;
20369;SDS011;10344;47.592;9.600;2022-12-11T10:29:58;8.40;;;7.10;;
20369;SDS011;10344;47.592;9.600;2022-12-11T10:33:19;8.85;;;7.40;;
20369;SDS011;10344;47.592;9.600;2022-12-11T10:35:46;7.80;;;6.82;;
20369;SDS011;10344;47.592;9.600;2022-12-11T10:40:57;8.70;;;7.25;;
20369;SDS011;10344;47.592;9.600;2022-12-11T10:43:47;7.90;;;7.10;;
20369;SDS011;10344;47.592;9.600;2022-12-11T10:51:14;7.88;;;7.03;;
20369;SDS011;10344;47.592;9.600;2022-12-11T10:53:42;7.82;;;6.75;;
20369;SDS011;10344;47.592;9.600;2022-12-11T10:56:13;8.18;;;6.85;;
20369;SDS011;10344;47.592;9.600;2022-12-11T10:58:39;8.30;;;7.28;;
20369;SDS011;10344;47.592;9.600;2022-12-11T11:01:14;8.77;;;7.15;;
20369;SDS011;10344;47.592;9.600;2022-12-11T11:06:39;8.67;;;7.07;;
20369;SDS011;10344;47.592;9.600;2022-12-11T11:09:25;7.78;;;6.75;;
20369;SDS011;10344;47.592;9.600;2022-12-11T11:12:00;7.35;;;6.45;;
20369;SDS011;10344;47.592;9.600;2022-12-11T11:14:26;8.93;;;7.60;;
20369;SDS011;10344;47.592;9.600;2022-12-11T11:16:55;8.30;;;6.97;;
20369;SDS011;10344;47.592;9.600;2022-12-11T11:19:34;9.38;;;7.80;;
20369;SDS011;10344;47.592;9.600;2022-12-11T11:22:06;9.68;;;7.78;;
20369;SDS011;10344;47.592;9.600;2022-12-11T11:24:43;8.93;;;7.40;;
20369;SDS011;10344;47.592;9.600;2022-12-11T11:27:27;8.70;;;7.47;;
20369;SDS011;10344;47.592;9.600;2022-12-11T11:36:57;9.17;;;7.53;;
20369;SDS011;10344;47.592;9.600;2022-12-11T11:40:29;9.93;;;7.88;;
20369;SDS011;10344;47.592;9.600;2022-12-11T11:47:34;8.38;;;6.93;;
20369;SDS011;10344;47.592;9.600;2022-12-11T12:01:17;11.18;;;9.85;;
20369;SDS011;10344;47.592;9.600;2022-12-11T12:03:47;8.18;;;7.05;;
20369;SDS011;10344;47.592;9.600;2022-12-11T12:08:49;9.98;;;8.07;;
20369;SDS011;10344;47.592;9.600;2022-12-11T12:19:47;10.05;;;7.57;;
20369;SDS011;10344;47.592;9.600;2022-12-11T12:31:11;9.68;;;8.10;;
20369;SDS011;10344;47.592;9.600;2022-12-11T12:42:34;8.75;;;7.53;;
20369;SDS011;10344;47.592;9.600;2022-12-11T12:47:41;9.30;;;7.57;;
20369;SDS011;10344;47.592;9.600;2022-12-11T12:50:10;9.98;;;7.68;;
20369;SDS011;10344;47.592;9.600;2022-12-11T12:52:42;8.70;;;7.15;;
20369;SDS011;10344;47.592;9.600;2022-12-11T12:55:20;8.30;;;7.43;;
20369;SDS011;10344;47.592;9.600;2022-12-11T12:57:53;9.65;;;7.68;;
20369;SDS011;10344;47.592;9.600;2022-12-11T13:00:40;8.93;;;7.45;;
20369;SDS011;10344;47.592;9.600;2022-12-11T13:05:53;9.70;;;7.78;;
20369;SDS011;10344;47.592;9.600;2022-12-11T13:08:29;10.40;;;8.82;;
20369;SDS011;10344;47.592;9.600;2022-12-11T13:11:06;9.50;;;7.78;;
20369;SDS011;10344;47.592;9.600;2022-12-11T13:18:42;10.13;;;7.97;;
20369;SDS011;10344;47.592;9.600;2022-12-11T13:23:49;10.02;;;7.85;;
20369;SDS011;10344;47.592;9.600;2022-12-11T13:26:26;9.50;;;7.65;;
20369;SDS011;10344;47.592;9.600;2022-12-11T13:28:55;8.70;;;7.50;;
20369;SDS011;10344;47.592;9.600;2022-12-11T13:31:25;10.77;;;8.13;;
20369;SDS011;10344;47.592;9.600;2022-12-11T13:33:56;9.98;;;7.82;;
20369;SDS011;10344;47.592;9.600;2022-12-11T13:36:28;9.60;;;8.10;;
20369;SDS011;10344;47.592;9.600;2022-12-11T13:39:04;9.45;;;7.45;;
20369;SDS011;10344;47.592;9.600;2022-12-11T13:41:39;9.13;;;7.20;;
20369;SDS011;10344;47.592;9.600;2022-12-11T13:44:14;10.10;;;7.60;;
20369;SDS011;10344;47.592;9.600;2022-12-11T13:46:48;8.47;;;7.10;;
20369;SDS011;10344;47.592;9.600;2022-12-11T13:49:17;8.20;;;6.25;;
20369;SDS011;10344;47.592;9.600;2022-12-11T13:51:53;8.10;;;6.72;;
20369;SDS011;10344;47.592;9.600;2022-12-11T13:54:23;8.32;;;7.20;;
20369;SDS011;10344;47.592;9.600;2022-12-11T13:57:32;10.48;;;7.70;;
20369;SDS011;10344;47.592;9.600;2022-12-11T13:59:46;8.97;;;7.20;;
20369;SDS011;10344;47.592;9.600;2022-12-11T14:02:17;9.93;;;7.35;;
20369;SDS011;10344;47.592;9.600;2022-12-11T14:04:50;9.18;;;7.18;;
20369;SDS011;10344;47.592;9.600;2022-12-11T14:07:32;8.93;;;7.22;;
20369;SDS011;10344;47.592;9.600;2022-12-11T14:10:02;8.80;;;7.10;;
20369;SDS011;10344;47.592;9.600;2022-12-11T14:12:32;9.88;;;7.90;;
20369;SDS011;10344;47.592;9.600;2022-12-11T14:14:59;8.52;;;7.18;;
20369;SDS011;10344;47.592;9.600;2022-12-11T14:17:27;11.07;;;6.97;;
20369;SDS011;10344;47.592;9.600;2022-12-11T14:20:00;8.35;;;6.90;;
20369;SDS011;10344;47.592;9.600;2022-12-11T14:22:31;8.55;;;6.70;;
20369;SDS011;10344;47.592;9.600;2022-12-11T14:24:58;8.73;;;6.78;;
20369;SDS011;10344;47.592;9.600;2022-12-11T14:27:27;8.45;;;6.78;;
20369;SDS011;10344;47.592;9.600;2022-12-11T14:29:53;9.10;;;7.10;;
20369;SDS011;10344;47.592;9.600;2022-12-11T14:34:51;9.23;;;6.88;;
20369;SDS011;10344;47.592;9.600;2022-12-11T14:37:18;9.05;;;7.00;;
20369;SDS011;10344;47.592;9.600;2022-12-11T14:39:54;8.65;;;7.00;;
20369;SDS011;10344;47.592;9.600;2022-12-11T14:42:24;7.43;;;6.25;;
20369;SDS011;10344;47.592;9.600;2022-12-11T14:47:31;8.60;;;6.80;;
20369;SDS011;10344;47.592;9.600;2022-12-11T14:52:52;9.13;;;7.20;;
20369;SDS011;10344;47.592;9.600;2022-12-11T14:55:27;8.10;;;6.60;;
20369;SDS011;10344;47.592;9.600;2022-12-11T14:57:58;8.45;;;6.72;;
20369;SDS011;10344;47.592;9.600;2022-12-11T15:00:33;8.52;;;6.70;;
20369;SDS011;10344;47.592;9.600;2022-12-11T15:03:02;7.57;;;6.30;;
20369;SDS011;10344;47.592;9.600;2022-12-11T15:05:51;7.93;;;6.32;;
20369;SDS011;10344;47.592;9.600;2022-12-11T15:08:18;7.57;;;6.22;;
20369;SDS011;10344;47.592;9.600;2022-12-11T15:11:07;8.15;;;6.60;;
20369;SDS011;10344;47.592;9.600;2022-12-11T15:13:45;8.18;;;6.68;;
20369;SDS011;10344;47.592;9.600;2022-12-11T15:16:15;7.25;;;6.38;;
20369;SDS011;10344;47.592;9.600;2022-12-11T15:18:41;8.85;;;7.03;;
20369;SDS011;10344;47.592;9.600;2022-12-11T15:21:10;8.15;;;6.50;;
20369;SDS011;10344;47.592;9.600;2022-12-11T15:23:47;7.90;;;6.55;;
20369;SDS011;10344;47.592;9.600;2022-12-11T15:26:16;10.57;;;8.77;;
20369;SDS011;10344;47.592;9.600;2022-12-11T15:28:42;9.65;;;7.85;;
20369;SDS011;10344;47.592;9.600;2022-12-11T15:34:19;12.25;;;9.50;;
20369;SDS011;10344;47.592;9.600;2022-12-11T15:36:48;17.13;;;12.18;;
20369;SDS011;10344;47.592;9.600;2022-12-11T15:39:13;16.60;;;12.23;;
20369;SDS011;10344;47.592;9.600;2022-12-11T15:41:39;16.90;;;12.13;;
20369;SDS011;10344;47.592;9.600;2022-12-11T15:44:12;15.00;;;11.35;;
20369;SDS011;10344;47.592;9.600;2022-12-11T15:46:43;15.63;;;11.57;;
20369;SDS011;10344;47.592;9.600;2022-12-11T15:49:10;17.52;;;12.93;;
20369;SDS011;10344;47.592;9.600;2022-12-11T15:51:38;16.50;;;11.82;;
20369;SDS011;10344;47.592;9.600;2022-12-11T15:54:05;14.27;;;11.30;;
20369;SDS011;10344;47.592;9.600;2022-12-11T15:56:30;14.70;;;11.38;;
20369;SDS011;10344;47.592;9.600;2022-12-11T15:58:57;15.40;;;11.83;;
20369;SDS011;10344;47.592;9.600;2022-12-11T16:01:28;15.00;;;11.80;;
20369;SDS011;10344;47.592;9.600;2022-12-11T16:03:54;16.10;;;12.40;;
20369;SDS011;10344;47.592;9.600;2022-12-11T16:06:20;18.58;;;13.98;;
20369;SDS011;10344;47.592;9.600;2022-12-11T16:08:45;19.07;;;14.47;;
20369;SDS011;10344;47.592;9.600;2022-12-11T16:11:12;17.43;;;13.80;;
20369;SDS011;10344;47.592;9.600;2022-12-11T16:13:39;21.58;;;15.52;;
20369;SDS011;10344;47.592;9.600;2022-12-11T16:16:05;23.43;;;16.53;;
20369;SDS011;10344;47.592;9.600;2022-12-11T16:18:31;19.65;;;14.15;;
20369;SDS011;10344;47.592;9.600;2022-12-11T16:20:57;18.10;;;13.27;;
20369;SDS011;10344;47.592;9.600;2022-12-11T16:23:29;15.73;;;11.90;;
20369;SDS011;10344;47.592;9.600;2022-12-11T16:25:55;16.23;;;11.48;;
20369;SDS011;10344;47.592;9.600;2022-12-11T16:28:20;17.30;;;12.13;;
20369;SDS011;10344;47.592;9.600;2022-12-11T16:30:46;16.30;;;12.43;;
20369;SDS011;10344;47.592;9.600;2022-12-11T16:33:12;14.75;;;11.13;;
20369;SDS011;10344;47.592;9.600;2022-12-11T16:35:37;13.27;;;10.30;;
20369;SDS011;10344;47.592;9.600;2022-12-11T16:38:03;12.13;;;10.07;;
20369;SDS011;10344;47.592;9.600;2022-12-11T16:40:29;11.83;;;10.00;;
20369;SDS011;10344;47.592;9.600;2022-12-11T16:48:05;13.20;;;9.80;;
20369;SDS011;10344;47.592;9.600;2022-12-11T16:50:31;12.33;;;9.50;;
20369;SDS011;10344;47.592;9.600;2022-12-11T16:52:57;10.98;;;8.82;;
20369;SDS011;10344;47.592;9.600;2022-12-11T16:55:24;11.90;;;9.52;;
20369;SDS011;10344;47.592;9.600;2022-12-11T16:57:51;12.30;;;9.80;;
20369;SDS011;10344;47.592;9.600;2022-12-11T17:00:17;14.45;;;10.20;;
20369;SDS011;10344;47.592;9.600;2022-12-11T17:02:42;12.93;;;9.93;;
20369;SDS011;10344;47.592;9.600;2022-12-11T17:05:08;13.87;;;9.97;;
20369;SDS011;10344;47.592;9.600;2022-12-11T17:07:34;13.70;;;9.95;;
20369;SDS011;10344;47.592;9.600;2022-12-11T17:09:59;13.85;;;10.43;;
20369;SDS011;10344;47.592;9.600;2022-12-11T17:12:26;18.45;;;12.70;;
20369;SDS011;10344;47.592;9.600;2022-12-11T17:14:53;18.23;;;13.33;;
20369;SDS011;10344;47.592;9.600;2022-12-11T17:17:19;18.75;;;13.30;;
20369;SDS011;10344;47.592;9.600;2022-12-11T17:19:45;15.50;;;11.73;;
20369;SDS011;10344;47.592;9.600;2022-12-11T17:22:11;17.23;;;12.55;;
20369;SDS011;10344;47.592;9.600;2022-12-11T17:24:38;17.45;;;12.98;;
20369;SDS011;10344;47.592;9.600;2022-12-11T17:27:03;16.10;;;12.30;;
20369;SDS011;10344;47.592;9.600;2022-12-11T17:29:29;16.00;;;11.67;;
20369;SDS011;10344;47.592;9.600;2022-12-11T17:31:55;15.23;;;11.50;;
20369;SDS011;10344;47.592;9.600;2022-12-11T17:34:21;14.70;;;11.70;;
20369;SDS011;10344;47.592;9.600;2022-12-11T17:36:46;13.95;;;10.43;;
20369;SDS011;10344;47.592;9.600;2022-12-11T17:39:12;13.70;;;11.37;;
20369;SDS011;10344;47.592;9.600;2022-12-11T17:41:38;14.77;;;11.37;;
20369;SDS011;10344;47.592;9.600;2022-12-11T17:44:03;15.82;;;12.07;;
20369;SDS011;10344;47.592;9.600;2022-12-11T17:46:29;13.43;;;10.63;;
20369;SDS011;10344;47.592;9.600;2022-12-11T17:48:54;15.50;;;11.30;;
20369;SDS011;10344;47.592;9.600;2022-12-11T17:51:23;15.77;;;12.13;;
20369;SDS011;10344;47.592;9.600;2022-12-11T17:53:49;17.17;;;11.97;;
20369;SDS011;10344;47.592;9.600;2022-12-11T17:56:15;15.77;;;12.25;;
20369;SDS011;10344;47.592;9.600;2022-12-11T17:58:41;16.90;;;12.93;;
20369;SDS011;10344;47.592;9.600;2022-12-11T18:01:08;16.90;;;12.30;;
20369;SDS011;10344;47.592;9.600;2022-12-11T18:03:34;16.45;;;11.68;;
20369;SDS011;10344;47.592;9.600;2022-12-11T18:06:06;15.25;;;11.45;;
20369;SDS011;10344;47.592;9.600;2022-12-11T18:08:36;14.98;;;11.43;;
20369;SDS011;10344;47.592;9.600;2022-12-11T18:11:08;17.42;;;13.07;;
20369;SDS011;10344;47.592;9.600;2022-12-11T18:13:36;19.47;;;15.13;;
20369;SDS011;10344;47.592;9.600;2022-12-11T18:16:06;19.70;;;15.13;;
20369;SDS011;10344;47.592;9.600;2022-12-11T18:18:34;18.77;;;14.10;;
20369;SDS011;10344;47.592;9.600;2022-12-11T18:21:00;17.58;;;13.48;;
20369;SDS011;10344;47.592;9.600;2022-12-11T18:23:26;19.23;;;14.03;;
20369;SDS011;10344;47.592;9.600;2022-12-11T18:25:52;21.13;;;15.52;;
20369;SDS011;10344;47.592;9.600;2022-12-11T18:28:18;20.13;;;14.90;;
20369;SDS011;10344;47.592;9.600;2022-12-11T18:30:44;21.02;;;15.10;;
20369;SDS011;10344;47.592;9.600;2022-12-11T18:33:12;19.70;;;14.63;;
20369;SDS011;10344;47.592;9.600;2022-12-11T18:35:38;20.90;;;15.83;;
20369;SDS011;10344;47.592;9.600;2022-12-11T18:38:06;19.48;;;14.27;;
20369;SDS011;10344;47.592;9.600;2022-12-11T18:40:32;20.88;;;14.82;;
20369;SDS011;10344;47.592;9.600;2022-12-11T18:42:57;17.83;;;13.43;;
20369;SDS011;10344;47.592;9.600;2022-12-11T18:45:25;23.10;;;16.40;;
20369;SDS011;10344;47.592;9.600;2022-12-11T18:47:51;21.73;;;15.20;;
20369;SDS011;10344;47.592;9.600;2022-12-11T18:50:17;22.43;;;15.13;;
20369;SDS011;10344;47.592;9.600;2022-12-11T18:52:43;16.77;;;12.70;;
20369;SDS011;10344;47.592;9.600;2022-12-11T18:55:09;17.17;;;14.15;;
20369;SDS011;10344;47.592;9.600;2022-12-11T18:57:35;17.17;;;13.02;;
20369;SDS011;10344;47.592;9.600;2022-12-11T19:00:00;17.17;;;12.77;;
20369;SDS011;10344;47.592;9.600;2022-12-11T19:02:31;17.33;;;12.30;;
20369;SDS011;10344;47.592;9.600;2022-12-11T19:04:57;17.13;;;12.70;;
20369;SDS011;10344;47.592;9.600;2022-12-11T19:07:22;16.20;;;12.80;;
20369;SDS011;10344;47.592;9.600;2022-12-11T19:09:48;14.48;;;10.90;;
20369;SDS011;10344;47.592;9.600;2022-12-11T19:12:14;14.75;;;11.55;;
20369;SDS011;10344;47.592;9.600;2022-12-11T19:14:39;14.97;;;11.17;;
20369;SDS011;10344;47.592;9.600;2022-12-11T19:17:05;13.73;;;10.43;;
20369;SDS011;10344;47.592;9.600;2022-12-11T19:19:31;13.45;;;10.32;;
20369;SDS011;10344;47.592;9.600;2022-12-11T19:21:57;14.43;;;10.73;;
20369;SDS011;10344;47.592;9.600;2022-12-11T19:24:22;15.68;;;11.48;;
20369;SDS011;10344;47.592;9.600;2022-12-11T19:26:49;14.90;;;11.52;;
20369;SDS011;10344;47.592;9.600;2022-12-11T19:29:21;14.60;;;10.70;;
20369;SDS011;10344;47.592;9.600;2022-12-11T19:31:49;17.20;;;12.95;;
20369;SDS011;10344;47.592;9.600;2022-12-11T19:34:15;15.35;;;11.73;;
20369;SDS011;10344;47.592;9.600;2022-12-11T19:36:40;15.95;;;12.30;;
20369;SDS011;10344;47.592;9.600;2022-12-11T19:39:09;16.15;;;11.68;;
20369;SDS011;10344;47.592;9.600;2022-12-11T19:41:35;13.37;;;10.07;;
20369;SDS011;10344;47.592;9.600;2022-12-11T19:44:00;14.70;;;10.67;;
20369;SDS011;10344;47.592;9.600;2022-12-11T19:46:27;14.95;;;10.80;;
20369;SDS011;10344;47.592;9.600;2022-12-11T19:48:53;14.43;;;10.73;;
20369;SDS011;10344;47.592;9.600;2022-12-11T19:51:30;15.25;;;11.25;;
20369;SDS011;10344;47.592;9.600;2022-12-11T19:54:02;13.63;;;10.52;;
20369;SDS011;10344;47.592;9.600;2022-12-11T19:56:29;15.45;;;10.95;;
20369;SDS011;10344;47.592;9.600;2022-12-11T19:58:56;14.40;;;10.98;;
20369;SDS011;10344;47.592;9.600;2022-12-11T20:01:26;14.75;;;11.20;;
20369;SDS011;10344;47.592;9.600;2022-12-11T20:03:55;14.73;;;11.98;;